TimeCDT,TemperatureF,Dew PointF,Humidity,Sea Level PressureIn,VisibilityMPH,Wind Direction,Wind SpeedMPH,Gust SpeedMPH,PrecipitationIn,Events,Conditions,WindDirDegrees,DateUTC
12:54 AM,66.0,57.9,75,30.03,10.0,North,5.8,-,N/A,,Clear,10,2013-07-11 05:54:00
1:54 AM,66.0,59.0,78,30.03,10.0,North,3.5,-,N/A,,Clear,10,2013-07-11 06:54:00
2:54 AM,64.9,57.9,78,30.03,10.0,North,3.5,-,N/A,,Clear,10,2013-07-11 07:54:00
3:54 AM,62.1,57.0,84,30.04,10.0,NNE,5.8,-,N/A,,Clear,20,2013-07-11 08:54:00
4:54 AM,61.0,57.0,87,30.05,10.0,NNE,3.5,-,N/A,,Clear,20,2013-07-11 09:54:00
5:54 AM,61.0,57.0,87,30.06,9.0,NNE,3.5,-,N/A,,Clear,30,2013-07-11 10:54:00
6:54 AM,63.0,57.9,84,30.07,8.0,North,3.5,-,N/A,,Clear,10,2013-07-11 11:54:00
7:54 AM,68.0,60.1,76,30.08,10.0,NNE,6.9,-,N/A,,Clear,30,2013-07-11 12:54:00
8:54 AM,73.0,62.1,68,30.09,10.0,NE,4.6,-,N/A,,Clear,40,2013-07-11 13:54:00
9:54 AM,77.0,60.1,56,30.08,10.0,ENE,4.6,-,N/A,,Clear,60,2013-07-11 14:54:00
10:54 AM,78.1,59.0,52,30.09,10.0,ESE,5.8,-,N/A,,Clear,120,2013-07-11 15:54:00
11:54 AM,78.1,57.9,50,30.09,10.0,Variable,3.5,-,N/A,,Mostly Cloudy,0,2013-07-11 16:54:00
12:54 PM,81.0,57.0,44,30.08,10.0,Variable,4.6,-,N/A,,Scattered Clouds,0,2013-07-11 17:54:00
1:54 PM,82.0,55.9,41,30.08,10.0,Variable,4.6,-,N/A,,Partly Cloudy,0,2013-07-11 18:54:00
2:54 PM,84.0,55.0,37,30.08,10.0,NE,8.1,-,N/A,,Partly Cloudy,40,2013-07-11 19:54:00
3:54 PM,82.9,55.9,39,30.07,10.0,NNE,8.1,-,N/A,,Clear,30,2013-07-11 20:54:00
4:54 PM,82.9,55.9,39,30.06,10.0,East,8.1,-,N/A,,Mostly Cloudy,80,2013-07-11 21:54:00
5:54 PM,82.0,54.0,38,30.04,10.0,ENE,6.9,-,N/A,,Clear,70,2013-07-11 22:54:00
6:54 PM,81.0,55.9,42,30.04,10.0,East,5.8,-,N/A,,Clear,100,2013-07-11 23:54:00
7:54 PM,79.0,57.9,48,30.04,10.0,East,4.6,-,N/A,,Clear,90,2013-07-12 00:54:00
8:54 PM,75.0,59.0,57,30.04,10.0,ESE,4.6,-,N/A,,Clear,110,2013-07-12 01:54:00
9:54 PM,73.0,59.0,61,30.04,10.0,East,5.8,-,N/A,,Clear,100,2013-07-12 02:54:00
10:54 PM,71.1,59.0,66,30.05,10.0,ESE,4.6,-,N/A,,Clear,110,2013-07-12 03:54:00
11:54 PM,69.1,59.0,70,30.07,10.0,Calm,Calm,-,N/A,,Clear,0,2013-07-12 04:54:00